createdAt,value
2018-07-14T00:01:28.903Z,98401.69
2018-07-14T00:03:58.076Z,98400.68
2018-07-14T00:06:27.280Z,98395.65
2018-07-14T00:08:56.504Z,98400.09
2018-07-14T00:11:25.454Z,98400.61
2018-07-14T00:13:54.677Z,98394.13
2018-07-14T00:16:25.261Z,98397.91
2018-07-14T00:18:54.519Z,98393.39
2018-07-14T00:21:23.698Z,98394.33
2018-07-14T00:23:52.663Z,98392.41
2018-07-14T00:26:21.869Z,98398.97
2018-07-14T00:28:51.079Z,98398.20
2018-07-14T00:31:20.288Z,98399.24
2018-07-14T00:33:49.510Z,98407.33
2018-07-14T00:36:18.709Z,98396.42
2018-07-14T00:38:47.687Z,98403.04
2018-07-14T00:41:16.896Z,98400.31
2018-07-14T00:43:46.099Z,98397.08
2018-07-14T00:46:15.305Z,98405.06
2018-07-14T00:48:44.497Z,98404.32
2018-07-14T00:51:13.716Z,98395.95
2018-07-14T00:53:42.910Z,98398.55
2018-07-14T00:56:12.127Z,98404.06
2018-07-14T00:58:41.319Z,98401.88
2018-07-14T01:01:10.536Z,98401.53
2018-07-14T01:03:39.751Z,98410.92
2018-07-14T01:06:08.956Z,98404.54
2018-07-14T01:08:38.172Z,98408.96
2018-07-14T01:11:07.648Z,98404.41
2018-07-14T01:13:36.844Z,98414.75
2018-07-14T01:16:06.286Z,98407.06
2018-07-14T01:18:35.483Z,98409.59
2018-07-14T01:21:04.717Z,98409.16
2018-07-14T01:23:33.905Z,98413.56
2018-07-14T01:26:03.161Z,98408.97
2018-07-14T01:28:32.363Z,98402.23
2018-07-14T01:31:01.576Z,98408.73
2018-07-14T01:33:31.063Z,98406.73
2018-07-14T01:36:00.296Z,98404.14
2018-07-14T01:38:29.535Z,98406.37
2018-07-14T01:40:58.745Z,98407.63
2018-07-14T01:43:27.949Z,98406.17
2018-07-14T01:45:57.159Z,98404.59
2018-07-14T01:48:26.389Z,98402.41
2018-07-14T01:50:55.600Z,98400.56
2018-07-14T01:53:24.803Z,98398.45
2018-07-14T01:55:54.008Z,98397.82
2018-07-14T01:58:23.221Z,98394.42
2018-07-14T02:00:52.438Z,98399.02
2018-07-14T02:03:21.641Z,98396.90
2018-07-14T02:05:50.793Z,98395.38
2018-07-14T02:08:19.954Z,98394.54
2018-07-14T02:10:49.101Z,98394.63
2018-07-14T02:13:18.256Z,98390.48
2018-07-14T02:15:47.390Z,98399.55
2018-07-14T02:18:16.543Z,98397.06
2018-07-14T02:20:45.703Z,98393.51
2018-07-14T02:23:14.648Z,98399.38
2018-07-14T02:25:43.789Z,98392.23
2018-07-14T02:28:12.940Z,98396.43
2018-07-14T02:30:42.092Z,98393.98
2018-07-14T02:33:11.051Z,98397.52
2018-07-14T02:35:40.192Z,98398.47
2018-07-14T02:38:09.344Z,98397.78
2018-07-14T02:40:38.497Z,98402.17
2018-07-14T02:43:07.632Z,98401.75
2018-07-14T02:45:36.800Z,98404.40
2018-07-14T02:48:05.993Z,98405.68
2018-07-14T02:50:35.161Z,98401.92
2018-07-14T02:53:05.179Z,98402.89
2018-07-14T02:55:34.353Z,98398.59
2018-07-14T02:58:03.499Z,98402.48
2018-07-14T03:00:32.659Z,98403.58
2018-07-14T03:03:01.590Z,98404.88
2018-07-14T03:05:30.746Z,98408.12
2018-07-14T03:07:59.891Z,98409.05
2018-07-14T03:10:29.052Z,98407.73
2018-07-14T03:12:58.262Z,98411.77
2018-07-14T03:15:27.368Z,98411.81
2018-07-14T03:17:56.517Z,98411.02
2018-07-14T03:20:25.700Z,98404.68
2018-07-14T03:22:54.840Z,98406.42
2018-07-14T03:25:23.993Z,98403.00
2018-07-14T03:27:53.128Z,98395.34
2018-07-14T03:30:22.285Z,98400.58
2018-07-14T03:32:51.425Z,98398.81
2018-07-14T03:35:20.584Z,98403.92
2018-07-14T03:37:49.752Z,98399.77
2018-07-14T03:40:18.892Z,98397.23
2018-07-14T03:42:48.055Z,98400.73
2018-07-14T03:45:17.232Z,98404.45
2018-07-14T03:47:46.373Z,98409.05
2018-07-14T03:50:15.523Z,98413.22
2018-07-14T03:52:44.681Z,98405.20
2018-07-14T03:55:13.850Z,98409.39
2018-07-14T03:57:43.002Z,98408.39
2018-07-14T04:00:12.144Z,98411.09
2018-07-14T04:02:41.297Z,98408.89
2018-07-14T04:05:10.454Z,98412.73
2018-07-14T04:07:39.665Z,98412.95
2018-07-14T04:10:09.279Z,98414.39
2018-07-14T04:12:38.244Z,98415.75
2018-07-14T04:15:07.456Z,98413.58
2018-07-14T04:17:36.680Z,98418.75
2018-07-14T04:20:05.916Z,98411.58
2018-07-14T04:25:33.037Z,98412.83
2018-07-14T04:28:02.548Z,98418.75
2018-07-14T04:30:31.717Z,98419.44
2018-07-14T04:33:00.668Z,98416.34
2018-07-14T04:35:29.825Z,98417.33
2018-07-14T04:37:59.008Z,98421.19
2018-07-14T04:40:28.257Z,98420.33
2018-07-14T04:42:57.424Z,98422.74
2018-07-14T04:45:26.600Z,98417.77
2018-07-14T04:47:55.543Z,98424.97
2018-07-14T04:50:24.708Z,98423.09
2018-07-14T04:52:53.901Z,98423.83
2018-07-14T04:55:23.126Z,98422.39
2018-07-14T04:57:52.280Z,98421.21
2018-07-14T05:00:21.458Z,98427.52
2018-07-14T05:02:50.630Z,98430.02
2018-07-14T05:05:19.841Z,98429.22
2018-07-14T05:07:49.013Z,98428.30
2018-07-14T05:10:18.213Z,98435.58
2018-07-14T05:12:48.156Z,98432.29
2018-07-14T05:15:17.333Z,98430.22
2018-07-14T05:17:46.497Z,98426.20
2018-07-14T05:20:15.669Z,98426.11
2018-07-14T05:22:44.835Z,98431.55
2018-07-14T05:25:14.009Z,98430.53
2018-07-14T05:27:43.184Z,98433.72
2018-07-14T05:30:12.373Z,98434.50
2018-07-14T05:32:41.551Z,98430.30
2018-07-14T05:35:10.746Z,98439.92
2018-07-14T05:37:39.909Z,98440.34
2018-07-14T05:40:09.068Z,98442.84
2018-07-14T05:42:38.086Z,98441.16
2018-07-14T05:45:07.456Z,98444.70
2018-07-14T05:47:36.427Z,98446.06
2018-07-14T05:50:06.044Z,98447.34
2018-07-14T05:52:35.245Z,98446.32
2018-07-14T05:55:04.465Z,98450.84
2018-07-14T05:57:33.668Z,98449.11
2018-07-14T06:00:02.879Z,98452.84
2018-07-14T06:02:32.088Z,98443.81
2018-07-14T06:05:01.277Z,98446.89
2018-07-14T06:07:30.445Z,98440.31
2018-07-14T06:09:59.619Z,98441.01
2018-07-14T06:12:28.805Z,98445.02
2018-07-14T06:14:57.981Z,98443.00
2018-07-14T06:17:27.141Z,98437.55
2018-07-14T06:19:56.313Z,98434.67
2018-07-14T06:22:25.255Z,98435.95
2018-07-14T06:24:54.420Z,98436.03
2018-07-14T06:27:23.585Z,98436.47
2018-07-14T06:29:52.755Z,98440.03
2018-07-14T06:32:21.948Z,98440.30
2018-07-14T06:34:51.105Z,98435.79
2018-07-14T06:37:20.052Z,98435.31
2018-07-14T06:39:49.256Z,98435.78
2018-07-14T06:42:18.436Z,98437.73
2018-07-14T06:44:47.636Z,98434.05
2018-07-14T06:47:16.776Z,98433.76
2018-07-14T06:49:45.987Z,98434.59
2018-07-14T06:52:15.169Z,98437.06
2018-07-14T06:54:44.107Z,98435.69
2018-07-14T06:57:13.311Z,98437.70
2018-07-14T06:59:42.676Z,98436.67
2018-07-14T07:02:11.850Z,98441.95
2018-07-14T07:04:41.025Z,98440.13
2018-07-14T07:07:10.205Z,98439.54
2018-07-14T07:09:39.374Z,98444.92
2018-07-14T07:12:08.579Z,98447.20
2018-07-14T07:14:40.781Z,98447.05
2018-07-14T07:17:09.963Z,98444.09
2018-07-14T07:19:39.149Z,98455.96
2018-07-14T07:22:08.316Z,98457.16
2018-07-14T07:24:37.487Z,98452.78
2018-07-14T07:27:06.742Z,98455.55
2018-07-14T07:29:35.906Z,98461.80
2018-07-14T07:32:05.089Z,98461.69
2018-07-14T07:34:34.288Z,98459.95
2018-07-14T07:37:03.463Z,98458.98
2018-07-14T07:39:32.652Z,98460.39
2018-07-14T07:42:01.830Z,98461.08
2018-07-14T07:44:31.002Z,98463.05
2018-07-14T07:47:00.176Z,98456.44
2018-07-14T07:49:29.338Z,98459.63
2018-07-14T07:51:58.551Z,98455.86
2018-07-14T07:54:27.753Z,98461.48
2018-07-14T07:56:56.938Z,98462.95
2018-07-14T07:59:26.109Z,98457.47
2018-07-14T08:01:55.268Z,98454.84
2018-07-14T08:04:24.231Z,98450.34
2018-07-14T08:06:53.432Z,98450.04
2018-07-14T08:09:22.633Z,98451.27
2018-07-14T08:11:52.090Z,98448.95
2018-07-14T08:14:21.292Z,98451.82
2018-07-14T08:16:50.493Z,98448.46
2018-07-14T08:19:19.706Z,98453.27
2018-07-14T08:21:48.979Z,98449.09
2018-07-14T08:24:18.168Z,98445.16
2018-07-14T08:26:47.369Z,98444.94
2018-07-14T08:29:16.577Z,98445.30
2018-07-14T08:31:45.768Z,98445.93
2018-07-14T08:34:14.962Z,98449.23
2018-07-14T08:36:44.184Z,98446.73
2018-07-14T08:39:13.372Z,98444.07
2018-07-14T08:41:42.594Z,98448.66
2018-07-14T08:44:11.801Z,98443.30
2018-07-14T08:46:40.992Z,98439.66
2018-07-14T08:49:10.197Z,98442.31
2018-07-14T08:51:39.482Z,98438.79
2018-07-14T08:54:08.634Z,98449.44
2018-07-14T08:56:37.825Z,98442.67
2018-07-14T08:59:07.019Z,98453.42
2018-07-14T09:01:36.217Z,98449.34
2018-07-14T09:04:05.164Z,98445.36
2018-07-14T09:06:34.333Z,98445.00
2018-07-14T09:09:03.861Z,98444.33
2018-07-14T09:11:33.033Z,98436.05
2018-07-14T09:14:02.209Z,98438.92
2018-07-14T09:16:31.481Z,98437.48
2018-07-14T09:19:00.593Z,98433.47
2018-07-14T09:21:29.752Z,98426.48
2018-07-14T15:29:08.449Z,98123.02
2018-07-14T15:31:37.614Z,98125.20
2018-07-14T15:34:07.262Z,98117.62
2018-07-14T15:36:36.401Z,98115.34
2018-07-14T15:39:07.209Z,98115.19
2018-07-14T15:41:36.362Z,98115.25
2018-07-14T15:44:05.572Z,98113.73
2018-07-14T15:46:34.716Z,98107.98
2018-07-14T15:49:03.872Z,98100.50
2018-07-14T15:51:33.033Z,98099.79
2018-07-14T15:54:02.184Z,98097.22
2018-07-14T15:56:31.341Z,98100.23
2018-07-14T15:59:00.514Z,98103.94
2018-07-14T16:01:29.664Z,98102.80
2018-07-14T16:03:58.816Z,98103.35
2018-07-14T16:06:28.265Z,98100.48
2018-07-14T16:08:57.512Z,98100.84
2018-07-14T16:11:26.672Z,98100.73
2018-07-14T16:13:55.836Z,98095.91
2018-07-14T16:16:26.082Z,98101.22
2018-07-14T16:18:55.257Z,98097.77
2018-07-14T16:21:24.386Z,98098.83
2018-07-14T16:23:53.532Z,98099.79
2018-07-14T16:26:22.675Z,98092.80
2018-07-14T16:28:51.845Z,98085.98
2018-07-14T16:31:20.988Z,98089.41
2018-07-14T16:33:49.924Z,98085.66
2018-07-14T16:36:19.069Z,98088.82
2018-07-14T16:38:48.241Z,98087.48
2018-07-14T16:41:17.385Z,98088.55
2018-07-14T16:43:46.529Z,98087.40
2018-07-14T16:46:15.677Z,98078.08
2018-07-14T16:48:44.831Z,98079.56
2018-07-14T16:51:13.981Z,98079.37
2018-07-14T16:53:43.128Z,98080.08
2018-07-14T16:56:12.316Z,98072.12
2018-07-14T16:58:41.466Z,98073.73
2018-07-14T17:01:10.611Z,98069.34
2018-07-14T17:03:39.765Z,98068.66
2018-07-14T17:06:08.918Z,98070.37
2018-07-14T17:08:38.073Z,98069.05
2018-07-14T17:11:07.265Z,98062.52
2018-07-14T17:13:36.484Z,98063.69
2018-07-14T17:16:05.642Z,98067.69
2018-07-14T17:18:34.838Z,98068.64
2018-07-14T17:21:03.996Z,98068.98
2018-07-14T17:23:33.140Z,98069.91
2018-07-14T17:26:02.509Z,98060.83
2018-07-14T17:28:34.573Z,98058.88
2018-07-14T17:31:03.696Z,98062.20
2018-07-14T17:33:32.897Z,98063.70
2018-07-14T17:36:02.068Z,98052.89
2018-07-14T17:38:31.001Z,98052.43
2018-07-14T17:41:00.169Z,98054.29
2018-07-14T17:43:29.348Z,98054.95
2018-07-14T17:45:58.525Z,98058.02
2018-07-14T17:48:27.845Z,98050.33
2018-07-14T17:50:58.301Z,98052.25
2018-07-14T17:53:27.525Z,98050.26
2018-07-14T17:55:56.469Z,98050.82
2018-07-14T17:58:25.625Z,98047.00
2018-07-14T18:00:54.817Z,98048.91
2018-07-14T18:03:23.963Z,98048.30
2018-07-14T18:05:53.191Z,98054.97
2018-07-14T18:08:22.360Z,98054.72
2018-07-14T18:10:51.596Z,98061.08
2018-07-14T18:13:20.776Z,98060.75
2018-07-14T18:15:49.956Z,98058.69
2018-07-14T18:18:19.116Z,98062.05
2018-07-14T18:20:48.277Z,98057.45
2018-07-14T18:23:17.467Z,98056.25
2018-07-14T18:25:46.637Z,98053.95
2018-07-14T18:28:15.799Z,98065.52
2018-07-14T18:30:46.419Z,98070.48
2018-07-14T18:33:15.583Z,98066.50
2018-07-14T18:35:44.801Z,98072.46
2018-07-14T18:38:14.065Z,98070.33
2018-07-14T18:40:43.498Z,98062.10
2018-07-14T18:43:12.693Z,98071.94
2018-07-14T18:45:42.087Z,98072.11
2018-07-14T18:48:11.372Z,98074.72
2018-07-14T18:50:40.574Z,98067.06
2018-07-14T18:53:09.748Z,98074.89
2018-07-14T18:55:38.966Z,98072.30
2018-07-14T18:58:08.396Z,98076.09
2018-07-14T19:00:37.637Z,98073.59
2018-07-14T19:03:06.803Z,98079.06
2018-07-14T19:05:35.976Z,98082.16
2018-07-14T19:08:05.808Z,98084.06
2018-07-14T19:10:35.013Z,98081.84
2018-07-14T19:13:04.179Z,98092.52
2018-07-14T19:15:33.347Z,98091.48
2018-07-14T19:18:02.508Z,98088.88
2018-07-14T19:20:31.739Z,98089.81
2018-07-14T19:23:00.926Z,98092.34
2018-07-14T19:25:30.068Z,98091.81
2018-07-14T19:27:59.242Z,98090.23
2018-07-14T19:30:28.396Z,98093.67
2018-07-14T19:32:57.578Z,98097.95
2018-07-14T19:35:26.728Z,98101.78
2018-07-14T19:37:55.900Z,98100.45
2018-07-14T19:40:25.052Z,98103.73
2018-07-14T19:42:54.294Z,98103.31
2018-07-14T19:45:23.389Z,98103.33
2018-07-14T19:47:52.562Z,98111.41
2018-07-14T19:50:21.707Z,98115.34
2018-07-14T19:52:50.850Z,98119.91
2018-07-14T19:55:20.007Z,98119.55
2018-07-14T19:57:49.178Z,98125.33
2018-07-14T20:00:18.346Z,98117.64
2018-07-14T20:02:47.488Z,98121.68
2018-07-14T20:05:16.428Z,98116.00
2018-07-14T20:07:45.633Z,98118.34
2018-07-14T20:10:14.804Z,98118.20
2018-07-14T20:12:43.965Z,98124.05
2018-07-14T20:15:12.899Z,98124.75
2018-07-14T20:17:42.152Z,98123.12
2018-07-14T20:20:11.098Z,98120.30
2018-07-14T20:22:40.544Z,98123.34
2018-07-14T20:25:09.741Z,98125.62
2018-07-14T20:27:38.961Z,98124.39
2018-07-14T20:30:08.538Z,98123.34
2018-07-14T20:32:37.385Z,98116.74
2018-07-14T20:35:06.561Z,98124.17
2018-07-14T20:37:35.761Z,98128.77
2018-07-14T20:40:05.040Z,98123.08
2018-07-14T20:42:34.193Z,98130.45
2018-07-14T20:45:03.365Z,98130.80
2018-07-14T20:47:32.517Z,98129.52
2018-07-14T20:50:01.652Z,98132.30
2018-07-14T20:52:30.860Z,98131.12
2018-07-14T20:55:00.016Z,98133.55
2018-07-14T20:57:28.959Z,98130.42
2018-07-14T20:59:58.990Z,98133.00
2018-07-14T21:02:28.151Z,98131.34
2018-07-14T21:04:57.554Z,98132.52
2018-07-14T21:07:26.744Z,98134.67
2018-07-14T21:09:56.072Z,98132.66
2018-07-14T21:12:25.280Z,98137.59
2018-07-14T21:14:54.472Z,98137.62
2018-07-14T21:17:23.704Z,98132.77
2018-07-14T21:19:52.719Z,98139.27
2018-07-14T21:22:22.275Z,98140.80
2018-07-14T21:24:51.633Z,98146.41
2018-07-14T21:27:20.804Z,98148.58
2018-07-14T21:29:49.985Z,98148.66
2018-07-14T21:32:19.224Z,98144.83
2018-07-14T21:34:48.421Z,98140.48
2018-07-14T21:37:17.584Z,98145.21
2018-07-14T21:39:46.777Z,98153.03
2018-07-14T21:42:16.109Z,98153.07
2018-07-14T21:44:45.411Z,98151.22
2018-07-14T21:47:14.787Z,98155.50
2018-07-14T21:49:43.997Z,98157.60
2018-07-14T21:52:12.914Z,98158.23
2018-07-14T21:54:42.073Z,98151.23
2018-07-14T21:57:11.285Z,98159.87
2018-07-14T21:59:40.250Z,98160.88
2018-07-14T22:02:09.424Z,98159.19
2018-07-14T22:04:38.652Z,98161.52
2018-07-14T22:07:07.963Z,98163.67
2018-07-14T22:09:37.215Z,98163.92
2018-07-14T22:12:06.446Z,98158.33
2018-07-14T22:14:35.802Z,98155.05
2018-07-14T22:17:04.971Z,98157.78
2018-07-14T22:19:34.242Z,98152.63
2018-07-14T22:22:03.445Z,98151.47
2018-07-14T22:24:32.776Z,98155.63
2018-07-14T22:27:01.955Z,98152.70
2018-07-14T22:29:30.876Z,98159.32
2018-07-14T22:32:00.037Z,98156.51
2018-07-14T22:34:29.188Z,98152.74
2018-07-14T22:36:58.328Z,98150.17
2018-07-14T22:39:27.493Z,98152.66
2018-07-14T22:41:56.642Z,98148.72
2018-07-14T22:44:25.546Z,98155.13
2018-07-14T22:46:54.683Z,98157.21
2018-07-14T22:49:23.856Z,98160.47
2018-07-14T22:51:53.000Z,98157.57
2018-07-14T22:54:22.141Z,98157.04
2018-07-14T22:56:51.292Z,98159.06
2018-07-14T22:59:20.451Z,98157.52
2018-07-14T23:01:49.608Z,98158.10
2018-07-14T23:04:18.531Z,98157.25
2018-07-14T23:06:47.679Z,98158.13
2018-07-14T23:09:16.963Z,98156.09
2018-07-14T23:11:46.113Z,98147.82
2018-07-14T23:14:15.264Z,98159.56
2018-07-14T23:16:44.419Z,98160.90
2018-07-14T23:19:13.564Z,98168.48
2018-07-14T23:21:42.707Z,98165.59
2018-07-14T23:24:11.844Z,98174.03
2018-07-14T23:26:40.999Z,98174.22
2018-07-14T23:29:10.136Z,98174.50
2018-07-14T23:31:39.297Z,98167.33
2018-07-14T23:34:08.440Z,98171.23
2018-07-14T23:36:38.091Z,98163.83
2018-07-14T23:39:08.784Z,98167.73
2018-07-14T23:41:38.808Z,98168.82
2018-07-14T23:44:08.207Z,98166.20
2018-07-14T23:46:37.340Z,98170.48
2018-07-14T23:49:06.647Z,98169.57
2018-07-14T23:51:35.797Z,98169.48
2018-07-14T23:54:05.037Z,98160.90
2018-07-14T23:56:34.173Z,98165.17
2018-07-14T23:59:03.307Z,98160.79
